PAUNPABT

Guest
Details From PAUN - Unalakleet
To PABT - Bettles
Flight Number -
Tags Generated
Created
Modified
Stats Distance 294 nm / 544 km
Max Altitude 0 ft / 0 m
Waypoints 3
Social Downloads 0
Likes 0
Share VATSIM

Download

Looking for another format? Having issues loading an existing format? Contact us
Advertisement - Login to hide

Notes

Generated

Route

PAUN R0234 PABT

ID Type Via Altitude Latitude Longitude Leg Dist Tot Dist Heading (true) Name
O PAUN APT - 0 ft / 0 m 63.88345˚ -160.79903˚ - 0 nm - -
R0234 FIX - 0 ft / 0 m 66.90794˚ -151.53869˚ 293 nm 293 nm 48° / 56° -
O PABT APT - 0 ft / 0 m 66.90794˚ -151.53869˚ 0 nm 293 nm 0° / 180° -

Altitude Profile

Advertisement - Login to hide

Weather


0- 5 10 15 20 25 30 35+ Temperature / ° C

Clouds and Precipitation
Forecast for 2017-12-12 06:00 UTC. Updated 4 minutes ago

Ground ~20,000 ft ~40,000 ft Winds

PAUN

Details ICAO PAUN (UNK)
Name Unalakleet
Region USA (Alaska)
Timezone America/Anchorage (UTC-9.0)
Stats Elevation 68 ft / 21 m (AMSL)
Location 63.886590° -160.796931°
Runways 2
Magnetic Variation 12.179° E

METAR

PAUN 120121Z AUTO 07011KT 8SM -SN FEW009 SCT014 OVC040 M03/M03 A2931 RMK AO2 P0000 FZRANO

Decode

TAF

PAUN 112334Z 1200/1224 32006KT P6SM SCT035 BKN050 OVC100 FM120300 08010KT 2SM -SN BR SCT025 BKN035 OVC050 FM120900 09010KT 5SM -SN BR SCT015 BKN025 OVC035 FM121200 09015G25KT 6SM -SN BR BKN025 BKN035 OVC050

Decode

Departure Runways

ID Width Length Bearing (true) Bearing (mag) Surface Threshold Offset Overrun Length
15 151 ft / 46 m 5,990 ft / 1,826 m 164.15° 151.97° Asphalt 0 ft / 0 m 499 ft / 152 m
26 79 ft / 24 m 1,993 ft / 608 m 278.43° 266.25° Asphalt 0 ft / 0 m 0 ft / 0 m
33 151 ft / 46 m 5,990 ft / 1,826 m 344.16° 331.98° Asphalt 0 ft / 0 m 0 ft / 0 m
8 79 ft / 24 m 1,993 ft / 608 m 98.42° 86.24° Asphalt 0 ft / 0 m 0 ft / 0 m

PABT

Details ICAO PABT (BTT)
Name BETTLES
Region USA (Alaska)
Timezone America/Anchorage (UTC-9.0)
Stats Elevation 644 ft / 196 m (AMSL)
Location 66.913940° -151.529042°
Runways 1
Magnetic Variation 16.441° E

METAR

PABT 120053Z 00000KT 3SM -SN BR OVC027 M04/M06 A2945 RMK AO2 SLP987 T10441061

Decode

TAF

PABT 112334Z 1200/1224 VRB04KT 6SM -SN BR SCT015 BKN035 OVC050 FM120300 VRB04KT 6SM -SN BR SCT015 BKN025 OVC035 FM120600 VRB04KT 6SM -SN BR BKN015 OVC025

Decode

Destination Runways

ID Width Length Bearing (true) Bearing (mag) Surface Threshold Offset Overrun Length
01 150 ft / 46 m 5,174 ft / 1,577 m 32.24° 15.80° Gravel 0 ft / 0 m 0 ft / 0 m
19 150 ft / 46 m 5,174 ft / 1,577 m 212.26° 195.82° Gravel 0 ft / 0 m 0 ft / 0 m

Approach Navaids

Runway Type Ident Frequency Range Bearing (true) Bearing (mag) Slope Elevation
01 Localiser IBTT 108.70 MHz 18 nm / 33 km 32.79° 16.35° - 633 ft / 193 m (AMSL)
01 DME IBTT 108.70 MHz 18 nm / 33 km - - - 653 ft / 199 m (AMSL)